Pagedale, Missouri
Current Conditions -  °F | °C
As of 9:51 AM on Monday 22 Dec 2014 (Local Time) from KSTL Reporting Station
Light Rain Light Rain  
Wind Chill: 38°   Ceiling: 700
Heat Index: 44°   Visibility: 2.5mi
Dew Point: 41°   Wind: 13mph
Humidity: 89%   Direction: 140°SE
Pressure: 29.73"   Gusts: NA
Location:  38.6807°N, 90.3068°W
Report Text: KSTL 221551Z 14011KT 2 1/2SM -RA BR OVC007 07/05 A2973 RMK AO2 SLP070 P0003 T00670050
Loading
Personal Weather Stations






























Interactive Weather Map New forecast layout! Learn more

10-Day Weather Forecast

Advertisements
Track Severe Weather on mobile